createdAt,value
2019-02-12T00:02:04.032Z,0.60
2019-02-12T00:04:35.358Z,0.50
2019-02-12T00:07:06.589Z,0.60
2019-02-12T00:09:37.321Z,0.60
2019-02-12T00:12:08.213Z,0.60
2019-02-12T00:14:38.779Z,0.50
2019-02-12T00:17:09.948Z,0.50
2019-02-12T00:19:42.791Z,0.50
2019-02-12T00:22:13.617Z,0.50
2019-02-12T00:24:44.279Z,0.50
2019-02-12T00:27:15.070Z,0.50
2019-02-12T00:29:45.682Z,0.50
2019-02-12T00:32:16.462Z,0.50
2019-02-12T00:34:48.066Z,0.50
2019-02-12T00:37:20.194Z,0.40
2019-02-12T00:39:51.369Z,0.40
2019-02-12T00:42:22.553Z,0.40
2019-02-12T00:44:53.279Z,0.40
2019-02-12T00:47:24.448Z,0.40
2019-02-12T00:49:55.084Z,0.40
2019-02-12T00:52:26.278Z,0.40
2019-02-12T00:54:57.240Z,0.40
2019-02-12T00:57:28.114Z,0.40
2019-02-12T00:59:58.931Z,0.40
2019-02-12T01:02:32.566Z,0.40
2019-02-12T01:05:04.456Z,0.30
2019-02-12T01:07:35.265Z,0.30
2019-02-12T01:10:07.608Z,0.30
2019-02-12T01:12:38.702Z,0.30
2019-02-12T01:15:11.653Z,0.30
2019-02-12T01:17:42.470Z,0.30
2019-02-12T01:20:13.919Z,0.20
2019-02-12T01:22:44.882Z,0.20
2019-02-12T01:25:15.887Z,0.20
2019-02-12T01:27:46.735Z,0.20
2019-02-12T01:30:17.977Z,0.20
2019-02-12T01:32:48.814Z,0.20
2019-02-12T01:35:19.540Z,0.20
2019-02-12T01:37:50.539Z,0.20
2019-02-12T01:40:21.333Z,0.10
2019-02-12T01:42:52.128Z,0.10
2019-02-12T01:45:23.375Z,0.10
2019-02-12T01:47:54.226Z,0.10
2019-02-12T01:50:24.771Z,0.10
2019-02-12T01:52:55.705Z,0.10
2019-02-12T01:55:26.455Z,0.10
2019-02-12T01:57:57.131Z,0.10
2019-02-12T02:00:28.347Z,0.10
2019-02-12T02:02:59.504Z,0.10
2019-02-12T02:05:30.638Z,0.10
2019-02-12T02:08:01.835Z,0.10
2019-02-12T02:10:32.596Z,0.10
2019-02-12T02:13:03.224Z,0.10
2019-02-12T02:15:34.285Z,0.10
2019-02-12T02:18:05.017Z,0.10
2019-02-12T02:20:35.629Z,0.10
2019-02-12T02:23:06.474Z,0.10
2019-02-12T02:25:37.254Z,0.10
2019-02-12T02:28:08.162Z,0.00
2019-02-12T02:30:39.191Z,0.00
2019-02-12T02:33:10.235Z,0.10
2019-02-12T02:35:40.788Z,0.10
2019-02-12T02:38:11.703Z,0.10
2019-02-12T02:40:42.395Z,0.10
2019-02-12T02:43:13.419Z,0.10
2019-02-12T02:45:44.307Z,0.10
2019-02-12T02:48:15.139Z,0.10
2019-02-12T02:50:45.786Z,0.10
2019-02-12T02:53:16.969Z,0.10
2019-02-12T02:55:47.571Z,0.10
2019-02-12T02:58:19.747Z,0.10
2019-02-12T03:00:50.264Z,0.10
2019-02-12T03:03:22.267Z,0.10
2019-02-12T03:05:53.207Z,0.10
2019-02-12T03:08:24.034Z,0.10
2019-02-12T03:10:54.855Z,0.10
2019-02-12T03:13:28.040Z,0.10
2019-02-12T03:16:00.115Z,0.10
2019-02-12T03:18:31.191Z,0.10
2019-02-12T03:21:03.037Z,0.10
2019-02-12T03:23:34.215Z,0.10
2019-02-12T03:26:04.891Z,0.10
2019-02-12T03:28:35.663Z,0.10
2019-02-12T03:31:06.335Z,0.10
2019-02-12T03:33:37.254Z,0.10
2019-02-12T03:36:08.030Z,0.10
2019-02-12T03:38:38.740Z,0.10
2019-02-12T03:41:09.383Z,0.00
2019-02-12T03:43:40.072Z,0.00
2019-02-12T03:46:10.867Z,0.00
2019-02-12T03:48:41.610Z,0.00
2019-02-12T03:51:12.506Z,0.00
2019-02-12T03:53:43.338Z,-0.10
2019-02-12T03:56:15.335Z,-0.10
2019-02-12T03:58:46.215Z,-0.10
2019-02-12T04:01:16.838Z,-0.10
2019-02-12T04:03:48.286Z,-0.10
2019-02-12T04:06:18.954Z,-0.10
2019-02-12T04:08:49.915Z,-0.10
2019-02-12T04:11:21.056Z,-0.10
2019-02-12T04:13:51.994Z,-0.10
2019-02-12T04:16:22.711Z,-0.10
2019-02-12T04:18:53.526Z,-0.10
2019-02-12T04:21:24.349Z,-0.20
2019-02-12T04:23:55.570Z,-0.20
2019-02-12T04:26:26.732Z,-0.20
2019-02-12T04:28:57.575Z,-0.20
2019-02-12T04:31:28.781Z,-0.20
2019-02-12T04:33:59.676Z,-0.20
2019-02-12T04:36:30.214Z,-0.30
2019-02-12T04:39:01.531Z,-0.30
2019-02-12T04:41:34.158Z,-0.30
2019-02-12T04:44:04.934Z,-0.30
2019-02-12T04:46:35.749Z,-0.30
2019-02-12T04:49:06.618Z,-0.30
2019-02-12T04:51:37.802Z,-0.30
2019-02-12T04:54:10.203Z,-0.30
2019-02-12T04:56:41.365Z,-0.30
2019-02-12T04:59:12.030Z,-0.30
2019-02-12T05:01:44.569Z,-0.30
2019-02-12T05:04:16.315Z,-0.30
2019-02-12T05:06:47.882Z,-0.40
2019-02-12T05:09:25.345Z,-0.30
2019-02-12T05:12:01.233Z,-0.30
2019-02-12T05:14:32.816Z,-0.30
2019-02-12T05:17:03.540Z,-0.40
2019-02-12T05:19:34.547Z,-0.30
2019-02-12T05:22:06.173Z,-0.40
2019-02-12T05:24:37.174Z,-0.30
2019-02-12T05:27:08.404Z,-0.40
2019-02-12T05:29:39.195Z,-0.40
2019-02-12T05:32:09.970Z,-0.40
2019-02-12T05:34:40.856Z,-0.40
2019-02-12T05:37:14.691Z,-0.40
2019-02-12T05:39:45.692Z,-0.40
2019-02-12T05:42:16.528Z,-0.40
2019-02-12T05:44:47.330Z,-0.40
2019-02-12T05:47:18.376Z,-0.40
2019-02-12T05:49:49.354Z,-0.40
2019-02-12T05:52:20.439Z,-0.50
2019-02-12T05:54:53.220Z,-0.40
2019-02-12T05:57:24.283Z,-0.50
2019-02-12T05:59:55.983Z,-0.50
2019-02-12T06:02:26.826Z,-0.50
2019-02-12T06:04:57.978Z,-0.50
2019-02-12T06:07:28.951Z,-0.50
2019-02-12T06:10:04.420Z,-0.50
2019-02-12T06:12:42.228Z,-0.50
2019-02-12T06:15:17.415Z,-0.60
2019-02-12T06:17:48.259Z,-0.50
2019-02-12T06:20:18.830Z,-0.50
2019-02-12T06:22:49.762Z,-0.50
2019-02-12T06:25:22.383Z,-0.50
2019-02-12T06:27:53.710Z,-0.60
2019-02-12T06:30:28.015Z,-0.60
2019-02-12T06:33:07.190Z,-0.50
2019-02-12T06:35:33.433Z,-0.50
2019-02-12T06:38:07.126Z,-0.50
2019-02-12T06:40:43.953Z,-0.50
2019-02-12T06:43:14.463Z,-0.50
2019-02-12T06:45:45.513Z,-0.50
2019-02-12T06:48:16.664Z,-0.50
2019-02-12T06:50:48.852Z,-0.50
2019-02-12T06:53:25.300Z,-0.50
2019-02-12T06:55:56.306Z,-0.50
2019-02-12T06:58:31.044Z,-0.50
2019-02-12T07:01:08.077Z,-0.50
2019-02-12T07:04:14.318Z,-0.50
2019-02-12T07:07:39.940Z,-0.50
2019-02-12T07:10:29.298Z,-0.50
2019-02-12T07:13:27.053Z,-0.40
2019-02-12T07:16:25.475Z,-0.50
2019-02-12T07:19:21.785Z,-0.40
2019-02-12T07:22:36.963Z,-0.40
2019-02-12T07:25:28.937Z,-0.40
2019-02-12T07:28:45.079Z,-0.40
2019-02-12T07:32:17.422Z,-0.40
2019-02-12T07:35:28.942Z,-0.40
2019-02-12T07:38:58.731Z,-0.40
2019-02-12T07:42:28.601Z,-0.40
2019-02-12T07:45:46.492Z,-0.40
2019-02-12T07:48:49.816Z,-0.30
2019-02-12T07:52:12.690Z,-0.30
2019-02-12T07:55:22.225Z,-0.30
2019-02-12T07:58:18.971Z,-0.30
2019-02-12T08:01:08.675Z,-0.30
2019-02-12T08:03:56.999Z,-0.30
2019-02-12T08:06:51.923Z,-0.20
2019-02-12T08:10:16.271Z,-0.20
2019-02-12T08:13:35.803Z,-0.10
2019-02-12T08:16:35.741Z,-0.20
2019-02-12T08:19:40.764Z,-0.10
2019-02-12T08:22:37.191Z,-0.10
2019-02-12T08:25:59.714Z,-0.10
2019-02-12T08:29:01.885Z,-0.10
2019-02-12T08:31:47.091Z,0.00
2019-02-12T08:35:15.885Z,0.00
2019-02-12T08:38:34.154Z,0.00
2019-02-12T08:41:28.195Z,0.00
2019-02-12T08:44:30.660Z,0.10
2019-02-12T08:47:33.756Z,0.10
2019-02-12T08:50:36.569Z,0.20
2019-02-12T08:53:50.279Z,0.20
2019-02-12T08:57:10.098Z,0.20
2019-02-12T09:00:11.476Z,0.20
2019-02-12T09:03:22.082Z,0.30
2019-02-12T09:06:52.162Z,0.30
2019-02-12T09:10:24.226Z,0.40
2019-02-12T09:13:24.218Z,0.40
2019-02-12T09:16:30.839Z,0.50
2019-02-12T09:19:36.322Z,0.50
2019-02-12T09:22:58.635Z,0.60
2019-02-12T09:26:11.001Z,0.60
2019-02-12T09:29:19.722Z,0.70
2019-02-12T09:32:39.267Z,0.70
2019-02-12T09:35:44.343Z,0.70
2019-02-12T09:38:55.962Z,0.80
2019-02-12T09:41:59.685Z,0.80
2019-02-12T09:45:07.364Z,0.90
2019-02-12T09:48:01.794Z,0.90
2019-02-12T09:50:57.490Z,0.90
2019-02-12T09:54:08.665Z,1.00
2019-02-12T09:57:17.832Z,1.00
2019-02-12T10:00:12.747Z,1.10
2019-02-12T10:03:07.112Z,1.10
2019-02-12T10:05:58.848Z,1.10
2019-02-12T10:09:12.488Z,1.20
2019-02-12T10:12:20.426Z,1.20
2019-02-12T10:15:33.687Z,1.30
2019-02-12T10:18:51.858Z,1.30
2019-02-12T10:21:58.945Z,1.40
2019-02-12T10:24:53.687Z,1.40
2019-02-12T10:28:19.196Z,1.40
2019-02-12T10:31:49.073Z,1.50
2019-02-12T10:34:20.187Z,1.50
2019-02-12T10:36:51.909Z,1.50
2019-02-12T10:39:22.315Z,1.60
2019-02-12T10:41:53.151Z,1.60
2019-02-12T10:44:23.786Z,1.60
2019-02-12T10:46:54.947Z,1.70
2019-02-12T10:49:26.123Z,1.70
2019-02-12T10:51:56.635Z,1.70
2019-02-12T10:54:28.350Z,1.70
2019-02-12T10:56:58.998Z,1.80
2019-02-12T10:59:30.167Z,1.80
2019-02-12T11:02:00.963Z,1.80
2019-02-12T11:04:31.707Z,1.80
2019-02-12T11:07:02.899Z,1.90
2019-02-12T11:09:34.094Z,1.90
2019-02-12T11:12:04.804Z,1.90
2019-02-12T11:14:35.384Z,2.00
2019-02-12T11:17:06.275Z,2.00
2019-02-12T11:19:37.070Z,2.10
2019-02-12T11:22:08.030Z,2.20
2019-02-12T11:24:39.018Z,2.30
2019-02-12T11:27:10.156Z,2.40
2019-02-12T11:29:41.126Z,2.50
2019-02-12T11:32:11.842Z,2.60
2019-02-12T11:34:43.598Z,2.90
2019-02-12T11:37:14.486Z,3.40
2019-02-12T11:39:45.076Z,4.10
2019-02-12T11:42:16.031Z,4.80
2019-02-12T11:44:46.662Z,5.50
2019-02-12T11:47:17.490Z,6.10
2019-02-12T11:49:49.233Z,6.80
2019-02-12T11:52:20.135Z,7.40
2019-02-12T11:54:50.787Z,7.90
2019-02-12T11:57:21.533Z,8.50
2019-02-12T11:59:52.703Z,9.00
2019-02-12T12:02:26.043Z,9.40
2019-02-12T12:04:56.824Z,9.80
2019-02-12T12:07:28.920Z,10.10
2019-02-12T12:09:59.506Z,10.40
2019-02-12T12:12:30.387Z,10.60
2019-02-12T12:15:01.059Z,10.70
2019-02-12T12:17:31.816Z,10.80
2019-02-12T12:20:02.660Z,11.00
2019-02-12T12:22:33.814Z,11.00
2019-02-12T12:25:04.670Z,10.80
2019-02-12T12:27:35.525Z,10.70
2019-02-12T12:30:06.647Z,10.60
2019-02-12T12:32:38.712Z,10.60
2019-02-12T12:35:09.835Z,10.40
2019-02-12T12:37:40.757Z,10.20
2019-02-12T12:40:11.722Z,10.00
2019-02-12T12:42:42.374Z,9.80
2019-02-12T12:45:13.513Z,9.60
2019-02-12T12:47:44.678Z,9.50
2019-02-12T12:50:15.590Z,9.50
2019-02-12T12:52:47.252Z,9.30
2019-02-12T12:55:17.843Z,9.20
2019-02-12T12:57:48.962Z,9.10
2019-02-12T13:00:19.777Z,8.80
2019-02-12T13:02:50.514Z,8.70
2019-02-12T13:05:21.735Z,8.40
2019-02-12T13:07:52.779Z,8.20
2019-02-12T13:10:23.753Z,7.90
2019-02-12T13:12:54.445Z,7.70
2019-02-12T13:15:25.576Z,7.50
2019-02-12T13:17:56.371Z,7.20
2019-02-12T13:20:27.061Z,7.00
2019-02-12T13:22:58.050Z,6.90
2019-02-12T13:25:28.670Z,6.70
2019-02-12T13:27:59.094Z,6.50
2019-02-12T13:30:30.785Z,6.30
2019-02-12T13:33:01.853Z,6.20
2019-02-12T13:35:32.952Z,6.10
2019-02-12T13:38:03.847Z,5.90
2019-02-12T13:40:34.686Z,5.90
2019-02-12T13:43:05.318Z,5.80
2019-02-12T13:45:36.850Z,5.70
2019-02-12T13:48:07.855Z,5.60
2019-02-12T13:50:38.471Z,5.50
2019-02-12T13:53:09.538Z,5.40
2019-02-12T13:55:40.405Z,5.30
2019-02-12T13:58:11.136Z,5.20
2019-02-12T14:00:42.070Z,5.10
2019-02-12T14:03:12.722Z,5.00
2019-02-12T14:05:45.018Z,4.90
2019-02-12T14:08:15.722Z,4.80
2019-02-12T14:10:46.585Z,4.70
2019-02-12T14:13:17.338Z,4.60
2019-02-12T14:15:48.300Z,4.50
2019-02-12T14:18:19.099Z,4.40
2019-02-12T14:20:50.231Z,4.30
2019-02-12T14:23:22.151Z,4.20
2019-02-12T14:25:52.819Z,4.20
2019-02-12T14:28:23.650Z,4.10
2019-02-12T14:30:54.507Z,4.00
2019-02-12T14:33:25.422Z,4.00
2019-02-12T14:35:56.187Z,3.90
2019-02-12T14:38:26.689Z,3.80
2019-02-12T14:40:57.298Z,3.80
2019-02-12T14:43:28.571Z,3.70
2019-02-12T14:45:59.339Z,3.70
2019-02-12T14:48:29.948Z,3.60
2019-02-12T14:51:00.741Z,3.50
2019-02-12T14:53:31.783Z,3.40
2019-02-12T14:56:10.949Z,3.40
2019-02-12T14:58:34.942Z,3.30
2019-02-12T15:01:07.077Z,3.30
2019-02-12T15:03:37.730Z,3.20
2019-02-12T15:06:08.215Z,3.10
2019-02-12T15:08:39.864Z,3.10
2019-02-12T15:11:10.772Z,3.00
2019-02-12T15:13:41.498Z,3.00
2019-02-12T15:16:12.810Z,3.00
2019-02-12T15:18:43.568Z,2.90
2019-02-12T15:21:14.397Z,2.90
2019-02-12T15:23:45.255Z,2.90
2019-02-12T15:26:16.297Z,2.90
2019-02-12T15:28:47.227Z,2.80
2019-02-12T15:31:18.011Z,2.80
2019-02-12T15:33:48.725Z,2.70
2019-02-12T15:36:19.332Z,2.70
2019-02-12T15:38:50.330Z,2.60
2019-02-12T15:41:20.966Z,2.60
2019-02-12T15:43:51.680Z,2.50
2019-02-12T15:46:23.380Z,2.50
2019-02-12T15:48:54.435Z,2.40
2019-02-12T15:51:25.378Z,2.40
2019-02-12T15:53:56.135Z,2.40
2019-02-12T15:56:26.814Z,2.30
2019-02-12T15:58:57.383Z,2.30
2019-02-12T16:01:28.371Z,2.30
2019-02-12T16:04:00.203Z,2.20
2019-02-12T16:06:32.334Z,2.20
2019-02-12T16:09:03.379Z,2.20
2019-02-12T16:11:34.949Z,2.10
2019-02-12T16:14:09.143Z,2.10
2019-02-12T16:16:39.779Z,2.10
2019-02-12T16:19:10.631Z,2.00
2019-02-12T16:21:41.238Z,2.00
2019-02-12T16:24:12.050Z,2.00
2019-02-12T16:26:42.742Z,2.00
2019-02-12T16:29:13.245Z,2.00
2019-02-12T16:31:43.926Z,2.00
2019-02-12T16:34:14.522Z,2.00
2019-02-12T16:36:46.930Z,1.90
2019-02-12T16:39:17.622Z,2.00
2019-02-12T16:41:48.466Z,2.00
2019-02-12T16:44:19.362Z,2.00
2019-02-12T16:46:50.294Z,2.00
2019-02-12T16:49:21.333Z,2.00
2019-02-12T16:51:52.151Z,1.90
2019-02-12T16:54:23.054Z,1.90
2019-02-12T16:56:53.635Z,1.90
2019-02-12T16:59:25.040Z,1.90
2019-02-12T17:01:55.914Z,1.90
2019-02-12T17:04:28.118Z,1.90
2019-02-12T17:06:58.747Z,1.90
2019-02-12T17:09:29.997Z,1.90
2019-02-12T17:12:06.471Z,1.90
2019-02-12T17:14:37.558Z,1.80
2019-02-12T17:17:08.416Z,1.80
2019-02-12T17:19:40.952Z,1.80
2019-02-12T17:22:11.796Z,1.80
2019-02-12T17:24:42.843Z,1.80
2019-02-12T17:27:13.736Z,1.80
2019-02-12T17:29:44.455Z,1.80
2019-02-12T17:32:15.324Z,1.80
2019-02-12T17:34:45.938Z,1.70
2019-02-12T17:37:17.043Z,1.70
2019-02-12T17:39:51.551Z,1.70
2019-02-12T17:42:22.515Z,1.70
2019-02-12T17:44:53.556Z,1.70
2019-02-12T17:47:27.760Z,1.70
2019-02-12T17:49:58.815Z,1.70
2019-02-12T17:52:29.480Z,1.70
2019-02-12T17:55:01.612Z,1.70
2019-02-12T17:57:33.505Z,1.70
2019-02-12T18:00:06.418Z,1.70
2019-02-12T18:02:38.943Z,1.70
2019-02-12T18:05:09.547Z,1.70
2019-02-12T18:07:40.317Z,1.70
2019-02-12T18:10:11.110Z,1.60
2019-02-12T18:12:41.797Z,1.70
2019-02-12T18:15:12.792Z,1.60
2019-02-12T18:17:43.516Z,1.60
2019-02-12T18:20:14.455Z,1.60
2019-02-12T18:22:45.157Z,1.60
2019-02-12T18:25:15.690Z,1.60
2019-02-12T18:27:46.363Z,1.60
2019-02-12T18:30:17.152Z,1.60
2019-02-12T18:32:47.933Z,1.60
2019-02-12T18:35:18.887Z,1.60
2019-02-12T18:37:49.750Z,1.60
2019-02-12T18:40:23.419Z,1.60
2019-02-12T18:42:54.562Z,1.50
2019-02-12T18:45:26.097Z,1.50
2019-02-12T18:47:58.783Z,1.50
2019-02-12T18:50:29.550Z,1.50
2019-02-12T18:53:00.192Z,1.50
2019-02-12T18:55:30.991Z,1.50
2019-02-12T18:58:01.933Z,1.50
2019-02-12T19:00:33.105Z,1.50
2019-02-12T19:03:04.582Z,1.50
2019-02-12T19:05:35.582Z,1.50
2019-02-12T19:08:06.265Z,1.50
2019-02-12T19:10:37.078Z,1.50
2019-02-12T19:13:09.550Z,1.50
2019-02-12T19:15:40.378Z,1.60
2019-02-12T19:18:14.998Z,1.60
2019-02-12T19:20:45.690Z,1.60
2019-02-12T19:23:17.319Z,1.60
2019-02-12T19:25:48.082Z,1.60
2019-02-12T19:28:19.070Z,1.60
2019-02-12T19:30:49.770Z,1.60
2019-02-12T19:33:20.336Z,1.50
2019-02-12T19:35:51.032Z,1.50
2019-02-12T19:38:21.912Z,1.50
2019-02-12T19:40:52.714Z,1.50
2019-02-12T19:43:23.467Z,1.50
2019-02-12T19:45:55.126Z,1.50
2019-02-12T19:48:25.766Z,1.50
2019-02-12T19:50:56.347Z,1.50
2019-02-12T19:53:27.293Z,1.50
2019-02-12T19:55:58.313Z,1.50
2019-02-12T19:58:29.522Z,1.50
2019-02-12T20:01:00.411Z,1.50
2019-02-12T20:03:33.018Z,1.50
2019-02-12T20:06:04.802Z,1.50
2019-02-12T20:08:35.628Z,1.50
2019-02-12T20:11:06.428Z,1.50
2019-02-12T20:13:38.437Z,1.50
2019-02-12T20:16:09.219Z,1.50
2019-02-12T20:18:39.894Z,1.40
2019-02-12T20:21:10.741Z,1.50
2019-02-12T20:23:41.573Z,1.50
2019-02-12T20:26:12.354Z,1.50
2019-02-12T20:28:43.174Z,1.50
2019-02-12T20:31:13.654Z,1.50
2019-02-12T20:33:44.581Z,1.50
2019-02-12T20:36:17.620Z,1.50
2019-02-12T20:38:48.340Z,1.50
2019-02-12T20:41:19.051Z,1.50
2019-02-12T20:43:49.581Z,1.50
2019-02-12T20:46:20.461Z,1.50
2019-02-12T20:48:50.906Z,1.50
2019-02-12T20:51:21.895Z,1.50
2019-02-12T20:53:52.670Z,1.50
2019-02-12T20:56:23.276Z,1.50
2019-02-12T20:58:54.275Z,1.50
2019-02-12T21:01:25.250Z,1.60
2019-02-12T21:03:56.442Z,1.60
2019-02-12T21:06:27.469Z,1.60
2019-02-12T21:08:58.202Z,1.60
2019-02-12T21:11:28.931Z,1.60
2019-02-12T21:14:00.112Z,1.60
2019-02-12T21:16:30.679Z,1.60
2019-02-12T21:19:01.452Z,1.60
2019-02-12T21:21:33.427Z,1.60
2019-02-12T21:24:04.482Z,1.60
2019-02-12T21:26:35.347Z,1.60
2019-02-12T21:29:06.310Z,1.60
2019-02-12T21:31:37.088Z,1.60
2019-02-12T21:34:07.744Z,1.60
2019-02-12T21:36:38.682Z,1.70
2019-02-12T21:39:10.626Z,1.70
2019-02-12T21:41:41.524Z,1.60
2019-02-12T21:44:12.738Z,1.70
2019-02-12T21:46:44.651Z,1.60
2019-02-12T21:49:15.574Z,1.60
2019-02-12T21:51:46.311Z,1.70
2019-02-12T21:54:17.748Z,1.70
2019-02-12T21:56:48.902Z,1.70
2019-02-12T21:59:19.799Z,1.70
2019-02-12T22:01:51.634Z,1.70
2019-02-12T22:04:22.651Z,1.70
2019-02-12T22:06:53.466Z,1.70
2019-02-12T22:09:26.198Z,1.70
2019-02-12T22:11:57.452Z,1.70
2019-02-12T22:14:28.272Z,1.80
2019-02-12T22:16:59.399Z,1.70
2019-02-12T22:19:30.210Z,1.80
2019-02-12T22:22:01.346Z,1.80
2019-02-12T22:24:32.103Z,1.80
2019-02-12T22:27:02.951Z,1.80
2019-02-12T22:29:35.600Z,1.80
2019-02-12T22:32:06.835Z,1.80
2019-02-12T22:34:37.614Z,1.80
2019-02-12T22:37:09.384Z,1.80
2019-02-12T22:39:41.463Z,1.90
2019-02-12T22:42:12.185Z,1.90
2019-02-12T22:44:43.218Z,1.90
2019-02-12T22:47:13.982Z,1.90
2019-02-12T22:49:44.780Z,1.80
2019-02-12T22:52:15.323Z,1.90
2019-02-12T22:54:47.686Z,1.90
2019-02-12T22:57:21.618Z,1.90
2019-02-12T22:59:52.318Z,1.90
2019-02-12T23:02:23.154Z,1.90
2019-02-12T23:04:54.267Z,1.90
2019-02-12T23:07:25.058Z,1.90
2019-02-12T23:09:56.184Z,1.90
2019-02-12T23:12:27.348Z,1.90
2019-02-12T23:14:58.144Z,1.90
2019-02-12T23:17:28.985Z,1.90
2019-02-12T23:19:59.744Z,1.90
2019-02-12T23:22:30.982Z,1.90
2019-02-12T23:25:01.588Z,2.00
2019-02-12T23:27:34.059Z,2.00
2019-02-12T23:30:04.928Z,2.00
2019-02-12T23:32:37.623Z,1.90
2019-02-12T23:35:08.438Z,2.00
2019-02-12T23:37:39.474Z,2.00
2019-02-12T23:40:10.746Z,2.00
2019-02-12T23:42:43.304Z,2.00
2019-02-12T23:45:14.258Z,2.00
2019-02-12T23:47:45.171Z,2.00
2019-02-12T23:50:15.975Z,2.00
2019-02-12T23:52:46.766Z,2.00
2019-02-12T23:55:17.426Z,2.00
2019-02-12T23:57:48.246Z,2.00
